Time;durP1;ratioP1;P1;durP2;ratioP2;P2;SDS_P1;SDS_P2;PMS_P1;PMS_P2;Temp;Humidity;BMP_temperature;BMP_pressure;BME280_temperature;BME280_humidity;BME280_pressure;Samples;Min_cycle;Max_cycle;Signal;HPM_P1;HPM_P2
2023/02/15 00:01:50;;;;;;;4.47;4.13;;;;;;;2.41;100.00;101807.56;5098650;28;20484;-48
2023/02/15 00:04:20;;;;;;;3.40;3.10;;;;;;;2.56;100.00;101801.84;5102491;28;20587;-48
2023/02/15 00:06:47;;;;;;;6.00;4.17;;;;;;;2.66;100.00;101806.53;5105449;28;20457;-47
2023/02/15 00:09:14;;;;;;;3.23;3.03;;;;;;;2.72;100.00;101797.94;5102010;28;20450;-50
2023/02/15 00:11:43;;;;;;;4.10;3.80;;;;;;;2.72;100.00;101795.31;5098468;28;20448;-47
2023/02/15 00:14:16;;;;;;;9.57;4.83;;;;;;;2.66;100.00;101796.91;5100966;28;20552;-48
2023/02/15 00:16:43;;;;;;;2.57;2.37;;;;;;;2.50;100.00;101791.22;5105254;28;20498;-48
2023/02/15 00:19:12;;;;;;;9.90;3.07;;;;;;;2.71;100.00;101797.03;5104078;28;20810;-48
2023/02/15 00:21:39;;;;;;;6.67;3.87;;;;;;;2.84;100.00;101788.66;5094986;28;20444;-48
2023/02/15 00:24:08;;;;;;;4.33;3.73;;;;;;;2.81;100.00;101785.06;5098956;28;20538;-48
2023/02/15 00:26:35;;;;;;;6.30;3.27;;;;;;;2.77;100.00;101794.59;5097940;28;20451;-49
2023/02/15 00:29:02;;;;;;;5.43;3.50;;;;;;;2.84;100.00;101793.91;5103083;28;20460;-47
2023/02/15 00:31:32;;;;;;;3.50;2.90;;;;;;;2.96;100.00;101793.34;5102917;28;20455;-48
2023/02/15 00:34:15;;;;;;;2.57;2.37;;;;;;;3.15;100.00;101793.00;5101581;28;20507;-48
2023/02/15 00:36:42;;;;;;;2.77;2.57;;;;;;;3.10;100.00;101791.97;5105132;28;20444;-49
2023/02/15 00:39:09;;;;;;;3.60;2.10;;;;;;;2.96;100.00;101786.34;5108518;28;20445;-48
2023/02/15 00:41:36;;;;;;;11.80;7.10;;;;;;;3.01;100.00;101783.84;5106235;28;20497;-49
2023/02/15 00:44:03;;;;;;;8.73;5.27;;;;;;;2.95;100.00;101775.81;5101902;28;20802;-48
2023/02/15 00:46:30;;;;;;;6.40;3.10;;;;;;;2.89;100.00;101779.19;5104482;28;20985;-48
2023/02/15 00:48:56;;;;;;;1.87;1.77;;;;;;;2.86;100.00;101776.44;5108498;28;20457;-48
2023/02/15 00:51:23;;;;;;;4.83;4.43;;;;;;;2.98;100.00;101773.25;5098976;28;20855;-50
2023/02/15 00:53:50;;;;;;;4.67;3.73;;;;;;;3.06;100.00;101774.38;5108184;28;20983;-48
2023/02/15 00:56:16;;;;;;;10.43;5.00;;;;;;;2.92;100.00;101766.13;5106398;28;20975;-49
2023/02/15 00:58:43;;;;;;;10.43;4.00;;;;;;;2.89;100.00;101763.44;5101785;28;20447;-49
2023/02/15 01:01:20;;;;;;;2.37;2.20;;;;;;;2.85;100.00;101766.78;5103108;28;20890;-47
2023/02/15 01:03:47;;;;;;;2.77;2.57;;;;;;;2.88;100.00;101769.53;5088078;28;20488;-49
2023/02/15 01:06:15;;;;;;;14.30;3.57;;;;;;;3.05;100.00;101772.59;5100937;28;20445;-48
2023/02/15 01:08:43;;;;;;;3.50;3.30;;;;;;;3.03;100.00;101768.16;5108037;28;20445;-47
2023/02/15 01:11:12;;;;;;;4.73;4.37;;;;;;;3.06;100.00;101757.72;5107909;28;20948;-48
2023/02/15 01:13:38;;;;;;;7.23;6.53;;;;;;;3.05;100.00;101761.19;5102336;28;20468;-48
2023/02/15 01:16:05;;;;;;;3.43;3.17;;;;;;;2.89;100.00;101767.78;5101160;28;20449;-48
2023/02/15 01:18:33;;;;;;;4.47;3.13;;;;;;;2.89;100.00;101757.28;5106533;28;20448;-48
2023/02/15 01:21:00;;;;;;;10.90;5.67;;;;;;;2.93;100.00;101765.28;5079519;28;20505;-47
2023/02/15 01:23:26;;;;;;;9.17;4.80;;;;;;;2.91;100.00;101772.22;5101874;28;20484;-48
2023/02/15 01:25:52;;;;;;;3.77;3.17;;;;;;;2.99;100.00;101780.28;5100775;28;20954;-48
2023/02/15 01:28:19;;;;;;;8.07;4.47;;;;;;;2.95;100.00;101768.81;5107476;28;20456;-48
2023/02/15 01:30:45;;;;;;;4.20;3.90;;;;;;;2.90;100.00;101769.56;5100796;28;20453;-48
2023/02/15 01:33:17;;;;;;;6.40;2.73;;;;;;;2.81;100.00;101770.19;5105611;28;20493;-48
2023/02/15 01:35:47;;;;;;;9.80;4.00;;;;;;;2.87;100.00;101772.09;5107510;28;20444;-48
2023/02/15 01:38:14;;;;;;;11.50;5.83;;;;;;;2.85;100.00;101765.91;5103674;28;20452;-48
2023/02/15 01:40:41;;;;;;;4.20;3.80;;;;;;;2.95;100.00;101766.19;5100729;28;20451;-48
2023/02/15 01:43:11;;;;;;;3.03;2.83;;;;;;;2.86;100.00;101759.81;5104418;28;20449;-48
2023/02/15 01:45:39;;;;;;;5.53;4.07;;;;;;;2.93;100.00;101749.50;5107347;28;20866;-48
2023/02/15 01:48:08;;;;;;;7.03;3.83;;;;;;;2.91;100.00;101747.72;5104685;28;20450;-48
2023/02/15 01:50:42;;;;;;;6.43;1.93;;;;;;;2.92;100.00;101753.00;5099962;28;20941;-48
2023/02/15 01:53:17;;;;;;;9.73;3.57;;;;;;;2.86;100.00;101749.31;5106255;28;20819;-48
2023/02/15 01:55:52;;;;;;;5.80;2.80;;;;;;;2.82;100.00;101734.31;5107150;28;20516;-48
2023/02/15 01:58:19;;;;;;;11.80;3.57;;;;;;;2.77;100.00;101742.09;5106929;28;21003;-48
2023/02/15 02:00:46;;;;;;;5.40;4.00;;;;;;;2.73;100.00;101734.97;5102700;28;20448;-48
2023/02/15 02:03:13;;;;;;;6.00;4.50;;;;;;;2.90;100.00;101743.31;5100119;28;20480;-48
2023/02/15 02:05:40;;;;;;;2.43;2.33;;;;;;;2.88;100.00;101734.50;5104826;28;20506;-48
2023/02/15 02:08:09;;;;;;;15.33;5.80;;;;;;;2.97;100.00;101729.47;5107462;28;20448;-48
2023/02/15 02:10:36;;;;;;;10.87;4.63;;;;;;;2.99;100.00;101730.38;5103103;28;20452;-47
2023/02/15 02:13:05;;;;;;;19.57;5.00;;;;;;;3.02;100.00;101730.50;5100004;28;20445;-48
2023/02/15 02:15:43;;;;;;;13.07;4.90;;;;;;;3.03;100.00;101729.63;5104196;28;20449;-47
2023/02/15 02:18:16;;;;;;;10.67;5.70;;;;;;;3.01;100.00;101733.06;5107346;28;20441;-48
2023/02/15 02:21:00;;;;;;;2.77;2.60;;;;;;;2.97;100.00;101732.09;5094810;28;20441;-48
2023/02/15 02:23:38;;;;;;;5.27;4.97;;;;;;;2.98;100.00;101731.25;5105168;28;20473;-48
2023/02/15 02:26:26;;;;;;;6.10;5.60;;;;;;;3.02;100.00;101730.50;5106559;28;20444;-49
2023/02/15 02:29:32;;;;;;;5.73;3.60;;;;;;;2.96;100.00;101736.47;5086737;28;20471;-48
2023/02/15 02:32:18;;;;;;;1.80;1.70;;;;;;;2.99;100.00;101743.53;5048350;28;20452;-48
2023/02/15 02:35:00;;;;;;;6.53;3.17;;;;;;;3.01;100.00;101736.56;5087858;28;20476;-48
2023/02/15 02:37:35;;;;;;;4.10;3.43;;;;;;;2.94;100.00;101740.78;5099473;28;20447;-48
2023/02/15 02:40:13;;;;;;;7.13;3.60;;;;;;;2.93;100.00;101732.88;5101881;28;20440;-48
2023/02/15 02:42:43;;;;;;;24.73;5.33;;;;;;;2.97;100.00;101725.09;5106336;28;21028;-49
2023/02/15 02:45:15;;;;;;;14.13;1.73;;;;;;;2.95;100.00;101723.28;5105507;28;20537;-48
2023/02/15 02:47:52;;;;;;;5.53;2.40;;;;;;;3.15;100.00;101716.81;5087295;28;20489;-47
2023/02/15 02:50:25;;;;;;;15.33;4.03;;;;;;;2.98;100.00;101718.09;5099209;28;20463;-48
2023/02/15 02:52:54;;;;;;;9.70;4.00;;;;;;;2.87;100.00;101712.56;5103792;28;20477;-48
2023/02/15 02:55:30;;;;;;;4.93;3.23;;;;;;;2.94;100.00;101709.28;5099004;28;20505;-48
2023/02/15 02:58:18;;;;;;;3.67;3.33;;;;;;;2.99;100.00;101714.63;5100948;28;20444;-48
2023/02/15 03:00:57;;;;;;;3.97;3.63;;;;;;;2.97;100.00;101708.47;5089258;28;20447;-48
2023/02/15 03:03:34;;;;;;;4.97;3.00;;;;;;;3.07;100.00;101706.97;5098807;28;20999;-49
2023/02/15 03:06:06;;;;;;;9.10;5.73;;;;;;;2.97;100.00;101703.19;5101282;28;20450;-48
2023/02/15 03:08:37;;;;;;;3.30;3.00;;;;;;;2.89;100.00;101689.91;5105772;28;20441;-48
2023/02/15 03:11:05;;;;;;;12.43;3.50;;;;;;;2.96;100.00;101696.19;5105731;28;20921;-48
2023/02/15 03:13:32;;;;;;;9.93;6.43;;;;;;;2.90;100.00;101699.56;5105920;28;20476;-48
2023/02/15 03:18:56;;;;;;;10.33;5.67;;;;;;;2.92;100.00;101681.22;5102538;28;20451;-49
2023/02/15 03:21:57;;;;;;;7.23;4.17;;;;;;;2.93;100.00;101681.25;5096827;28;20458;-49
2023/02/15 03:24:28;;;;;;;13.50;5.47;;;;;;;2.96;100.00;101683.94;5066618;28;20533;-50
2023/02/15 03:26:56;;;;;;;2.60;2.00;;;;;;;2.93;100.00;101683.88;5099388;28;20459;-48
2023/02/15 03:29:25;;;;;;;8.13;3.60;;;;;;;2.87;100.00;101678.44;5105662;28;20470;-48
2023/02/15 03:31:58;;;;;;;18.17;5.37;;;;;;;2.84;100.00;101674.84;5102799;28;20452;-48
2023/02/15 03:34:25;;;;;;;7.43;4.80;;;;;;;2.87;100.00;101678.44;5099157;28;20479;-49
2023/02/15 03:37:13;;;;;;;10.30;3.53;;;;;;;2.78;100.00;101669.47;5101240;28;20452;-48
2023/02/15 03:39:48;;;;;;;15.97;3.73;;;;;;;2.88;100.00;101663.59;5088113;28;20444;-48
2023/02/15 03:42:18;;;;;;;6.03;4.00;;;;;;;2.88;100.00;101682.88;5098777;28;20444;-48
2023/02/15 03:44:59;;;;;;;2.73;2.47;;;;;;;2.87;100.00;101678.44;5102225;28;20492;-47
2023/02/15 03:47:34;;;;;;;2.60;2.43;;;;;;;2.79;100.00;101679.13;5105970;28;20857;-47
2023/02/15 03:53:09;;;;;;;1.67;1.57;;;;;;;2.95;100.00;101676.91;5095275;28;20443;-47
2023/02/15 03:55:35;;;;;;;5.60;4.63;;;;;;;2.83;100.00;101673.09;5098466;28;20858;-48
2023/02/15 04:03:49;;;;;;;1.97;1.70;;;;;;;2.26;100.00;101675.97;5102288;28;20464;-47
2023/02/15 04:06:15;;;;;;;3.93;2.63;;;;;;;2.51;100.00;101678.41;5103226;28;20450;-48
2023/02/15 04:11:31;;;;;;;3.73;3.53;;;;;;;2.62;100.00;101673.44;5080141;28;20451;-47
2023/02/15 04:13:58;;;;;;;4.33;4.03;;;;;;;2.67;100.00;101680.56;5104989;28;20505;-49
2023/02/15 04:16:25;;;;;;;2.03;1.47;;;;;;;2.64;100.00;101674.38;5102106;28;20447;-48
2023/02/15 04:27:06;;;;;;;2.57;2.37;;;;;;;2.82;100.00;101684.44;5102125;28;20453;-47
2023/02/15 04:29:32;;;;;;;3.17;2.13;;;;;;;2.81;100.00;101685.28;5109037;28;20449;-48
2023/02/15 04:32:01;;;;;;;4.13;3.13;;;;;;;2.76;100.00;101693.06;5106628;28;20448;-49
2023/02/15 04:34:28;;;;;;;6.17;3.50;;;;;;;2.93;100.00;101689.13;5096884;28;20479;-48
2023/02/15 04:36:54;;;;;;;5.23;2.60;;;;;;;2.85;100.00;101688.03;5106888;28;20455;-48
2023/02/15 04:39:21;;;;;;;4.43;4.13;;;;;;;2.91;100.00;101685.56;5097404;28;20449;-47
2023/02/15 04:41:47;;;;;;;7.40;5.03;;;;;;;2.71;100.00;101689.41;5106534;28;20448;-47
2023/02/15 04:44:14;;;;;;;3.27;2.97;;;;;;;2.81;100.00;101691.44;5101617;28;20487;-46
2023/02/15 04:46:41;;;;;;;3.43;3.00;;;;;;;2.81;100.00;101687.91;5103792;28;20484;-47
2023/02/15 04:49:08;;;;;;;17.93;2.63;;;;;;;2.76;100.00;101686.91;5108520;28;20460;-47
2023/02/15 04:51:34;;;;;;;4.27;3.87;;;;;;;2.88;100.00;101682.00;5097706;28;20945;-47
2023/02/15 04:54:01;;;;;;;3.60;3.37;;;;;;;2.84;100.00;101677.47;5108425;28;20465;-47
2023/02/15 04:56:29;;;;;;;8.13;2.17;;;;;;;2.78;100.00;101678.22;5106504;28;20844;-47
2023/02/15 04:58:56;;;;;;;4.43;3.27;;;;;;;2.79;100.00;101676.50;5101481;28;20454;-47
2023/02/15 05:01:22;;;;;;;3.60;2.80;;;;;;;2.73;100.00;101664.09;5102837;28;20449;-47
2023/02/15 05:03:49;;;;;;;18.90;6.27;;;;;;;2.75;100.00;101672.91;5108131;28;20472;-47
2023/02/15 05:06:15;;;;;;;12.93;2.47;;;;;;;2.81;100.00;101667.81;5106947;28;20563;-47
2023/02/15 05:08:41;;;;;;;5.50;2.50;;;;;;;2.86;100.00;101667.91;5101125;28;20448;-47
2023/02/15 05:11:08;;;;;;;4.83;2.27;;;;;;;2.82;100.00;101666.06;5102682;28;20441;-48
2023/02/15 05:13:35;;;;;;;9.40;4.00;;;;;;;2.68;100.00;101663.97;5108416;28;20465;-48
2023/02/15 05:16:01;;;;;;;7.13;2.30;;;;;;;2.47;100.00;101652.03;5107138;28;20497;-47
2023/02/15 05:18:28;;;;;;;3.77;1.83;;;;;;;2.20;100.00;101649.56;5063671;28;20829;-47
2023/02/15 05:20:54;;;;;;;11.00;3.73;;;;;;;1.94;100.00;101646.22;5079206;28;20851;-47
2023/02/15 05:23:21;;;;;;;2.43;2.30;;;;;;;2.01;100.00;101656.03;5101695;28;20833;-47
2023/02/15 05:28:36;;;;;;;2.00;1.77;;;;;;;2.30;100.00;101654.19;5108732;28;20534;-47
2023/02/15 05:31:04;;;;;;;4.83;2.87;;;;;;;2.36;100.00;101662.25;5100644;28;20448;-47
2023/02/15 05:33:32;;;;;;;5.53;3.33;;;;;;;2.63;100.00;101662.97;5103003;28;20555;-47
2023/02/15 05:35:58;;;;;;;1.33;1.23;;;;;;;2.59;100.00;101658.47;5107821;28;20441;-48
2023/02/15 05:38:28;;;;;;;3.23;2.93;;;;;;;2.55;100.00;101659.25;5105587;28;20443;-47
2023/02/15 05:40:54;;;;;;;25.47;2.23;;;;;;;2.48;100.00;101657.34;5109350;28;20448;-47
2023/02/15 05:43:21;;;;;;;5.10;2.43;;;;;;;2.45;100.00;101664.22;5105407;28;20468;-47
2023/02/15 05:45:50;;;;;;;2.70;2.50;;;;;;;2.20;100.00;101657.44;5100550;28;20479;-47
2023/02/15 05:48:18;;;;;;;2.53;2.33;;;;;;;2.22;100.00;101658.38;5101967;28;20946;-47
2023/02/15 05:50:44;;;;;;;3.13;1.47;;;;;;;2.59;100.00;101653.22;5109236;28;20879;-47
2023/02/15 05:53:11;;;;;;;6.60;5.80;;;;;;;2.37;100.00;101659.66;5101244;28;20445;-48
2023/02/15 05:55:39;;;;;;;8.00;2.00;;;;;;;2.36;100.00;101652.66;5107310;28;20460;-47
2023/02/15 05:58:07;;;;;;;5.57;4.30;;;;;;;2.19;100.00;101660.88;5106288;28;20455;-48
2023/02/15 06:00:34;;;;;;;8.57;4.47;;;;;;;2.07;100.00;101658.84;5100079;28;20851;-47
2023/02/15 06:03:03;;;;;;;2.37;2.00;;;;;;;2.09;100.00;101670.25;5101072;28;20449;-47
2023/02/15 06:05:29;;;;;;;4.33;1.60;;;;;;;2.04;100.00;101684.94;5107051;28;20485;-47
2023/02/15 06:07:56;;;;;;;2.53;0.93;;;;;;;2.03;100.00;101676.19;5106493;28;20969;-47
2023/02/15 06:10:22;;;;;;;4.23;3.57;;;;;;;2.21;100.00;101674.97;5099818;28;20464;-47
2023/02/15 06:12:48;;;;;;;3.17;2.97;;;;;;;2.24;100.00;101677.66;5100702;28;20495;-47
2023/02/15 06:15:15;;;;;;;6.97;3.20;;;;;;;2.32;100.00;101679.63;5099558;28;20468;-47
2023/02/15 06:17:42;;;;;;;15.10;5.00;;;;;;;2.44;100.00;101686.06;5100465;28;20506;-47
2023/02/15 06:20:09;;;;;;;3.80;2.43;;;;;;;2.47;100.00;101686.13;5105550;28;20476;-47
2023/02/15 06:22:36;;;;;;;8.60;3.73;;;;;;;2.58;100.00;101679.44;5096845;28;20441;-48
2023/02/15 06:25:03;;;;;;;6.50;3.53;;;;;;;2.57;100.00;101682.91;5098784;28;20491;-48
2023/02/15 06:27:29;;;;;;;7.70;3.47;;;;;;;2.59;100.00;101682.09;5081961;28;20515;-47
2023/02/15 06:29:56;;;;;;;8.00;3.07;;;;;;;2.58;100.00;101677.69;5105603;28;20451;-47
2023/02/15 06:32:22;;;;;;;3.40;3.30;;;;;;;2.65;100.00;101681.38;5106565;28;20450;-47
2023/02/15 06:34:49;;;;;;;4.47;2.47;;;;;;;2.63;100.00;101689.22;5100531;28;20480;-47
2023/02/15 06:37:15;;;;;;;3.70;2.80;;;;;;;2.53;100.00;101688.94;5099565;28;20445;-47
2023/02/15 06:39:42;;;;;;;10.07;2.70;;;;;;;2.44;100.00;101686.94;5105526;28;20453;-48
2023/02/15 06:42:09;;;;;;;11.77;3.83;;;;;;;2.60;100.00;101688.22;5106394;28;20530;-49
2023/02/15 06:44:35;;;;;;;2.80;2.60;;;;;;;2.49;100.00;101692.34;5093001;28;20472;-47
2023/02/15 06:47:02;;;;;;;2.23;2.00;;;;;;;2.33;100.00;101698.88;5106371;28;20448;-48
2023/02/15 06:49:28;;;;;;;5.40;2.70;;;;;;;2.48;100.00;101698.44;5100730;28;20450;-47
2023/02/15 06:51:54;;;;;;;11.63;2.20;;;;;;;2.52;100.00;101710.78;5108589;28;20448;-48
2023/02/15 06:54:21;;;;;;;3.17;2.80;;;;;;;2.34;100.00;101698.94;5100726;28;20506;-47
2023/02/15 06:56:47;;;;;;;1.43;0.63;;;;;;;2.12;100.00;101706.16;5099344;28;20448;-47
2023/02/15 06:59:14;;;;;;;2.77;1.60;;;;;;;2.21;100.00;101711.69;5104844;28;20921;-47
2023/02/15 07:01:40;;;;;;;1.67;1.10;;;;;;;1.91;100.00;101704.69;5106028;28;20448;-47
2023/02/15 07:04:07;;;;;;;1.23;1.17;;;;;;;1.98;100.00;101704.03;5074621;28;20522;-47
2023/02/15 07:06:33;;;;;;;3.43;2.33;;;;;;;2.13;100.00;101713.19;5104586;28;20484;-47
2023/02/15 07:09:00;;;;;;;6.90;4.33;;;;;;;2.25;100.00;101700.41;5089207;28;20501;-47
2023/02/15 07:14:12;;;;;;;3.03;2.73;;;;;;;2.45;100.00;101699.22;5101562;28;20877;-47
2023/02/15 07:16:39;;;;;;;2.33;2.20;;;;;;;2.42;100.00;101693.88;5106067;28;20440;-48
2023/02/15 07:19:06;;;;;;;9.30;2.57;;;;;;;2.32;100.00;101695.38;5103952;28;20527;-47
2023/02/15 07:21:35;;;;;;;4.00;3.40;;;;;;;2.09;100.00;101696.47;5097101;28;20455;-47
2023/02/15 07:24:02;;;;;;;2.33;1.97;;;;;;;2.29;100.00;101699.66;5105310;28;20464;-48
2023/02/15 07:26:31;;;;;;;10.13;2.57;;;;;;;2.55;100.00;101696.00;5098856;28;20500;-47
2023/02/15 07:28:57;;;;;;;5.00;2.10;;;;;;;2.56;100.00;101704.75;5105949;28;20456;-48
2023/02/15 07:31:24;;;;;;;2.30;1.50;;;;;;;2.49;100.00;101706.34;5098526;28;20817;-48
2023/02/15 07:33:50;;;;;;;6.00;1.70;;;;;;;2.47;100.00;101704.50;5103234;28;20477;-47
2023/02/15 07:36:17;;;;;;;18.90;3.20;;;;;;;2.36;100.00;101699.88;5109967;28;20441;-47
2023/02/15 07:38:44;;;;;;;3.70;3.43;;;;;;;2.32;100.00;101702.34;5109953;28;20452;-46
2023/02/15 07:41:13;;;;;;;1.83;1.63;;;;;;;2.10;100.00;101703.50;5089967;28;20475;-46
2023/02/15 07:43:42;;;;;;;4.00;2.77;;;;;;;2.12;100.00;101708.78;5102757;28;20475;-47
2023/02/15 07:46:11;;;;;;;3.23;1.33;;;;;;;2.28;100.00;101700.50;5108636;28;20488;-47
2023/02/15 07:48:39;;;;;;;15.13;2.70;;;;;;;2.30;100.00;101699.69;5111389;28;20905;-47
2023/02/15 07:51:08;;;;;;;5.23;1.17;;;;;;;2.25;100.00;101700.41;5112701;28;20448;-47
2023/02/15 07:53:36;;;;;;;2.33;2.23;;;;;;;2.28;100.00;101688.25;5102772;28;20499;-47
2023/02/15 07:56:11;;;;;;;4.60;2.40;;;;;;;2.32;100.00;101686.59;5106892;28;20441;-47
2023/02/15 07:58:55;;;;;;;1.27;1.17;;;;;;;2.45;100.00;101693.97;5109449;28;20440;-48
2023/02/15 08:01:29;;;;;;;3.37;3.17;;;;;;;2.53;100.00;101686.31;5091132;28;20909;-47
2023/02/15 08:03:56;;;;;;;2.20;1.60;;;;;;;2.59;100.00;101682.09;5090206;28;20471;-47
2023/02/15 08:06:25;;;;;;;3.07;2.50;;;;;;;2.76;100.00;101682.56;5102463;28;20492;-47
2023/02/15 08:08:52;;;;;;;4.63;2.70;;;;;;;2.70;100.00;101684.13;5108235;28;20449;-48
2023/02/15 08:11:37;;;;;;;3.40;1.67;;;;;;;2.71;100.00;101678.91;5091236;28;21010;-47
2023/02/15 08:14:06;;;;;;;4.00;2.40;;;;;;;2.60;100.00;101686.53;5106443;28;20513;-47
2023/02/15 08:16:35;;;;;;;9.40;2.40;;;;;;;2.56;100.00;101678.50;5102552;28;20874;-47
2023/02/15 08:19:05;;;;;;;4.07;2.80;;;;;;;2.55;100.00;101674.13;5086464;28;20502;-46
2023/02/15 08:21:33;;;;;;;3.50;2.63;;;;;;;2.66;100.00;101676.19;5098469;28;20444;-47
2023/02/15 08:23:59;;;;;;;2.47;2.27;;;;;;;2.61;100.00;101671.66;5108206;28;20456;-46
2023/02/15 08:26:27;;;;;;;6.97;2.83;;;;;;;2.74;100.00;101664.97;5102037;28;20506;-46
2023/02/15 08:28:54;;;;;;;1.53;1.43;;;;;;;2.36;100.00;101663.13;5109081;28;20455;-46
2023/02/15 08:31:21;;;;;;;7.00;2.77;;;;;;;2.60;100.00;101660.28;5102161;28;20455;-46
2023/02/15 08:33:49;;;;;;;2.33;2.23;;;;;;;2.58;100.00;101668.94;5102644;28;20473;-46
2023/02/15 08:36:19;;;;;;;2.03;1.90;;;;;;;2.71;100.00;101657.91;5108606;28;20964;-47
2023/02/15 08:38:46;;;;;;;8.77;2.60;;;;;;;2.72;100.00;101654.44;5109081;28;20448;-48
2023/02/15 08:41:24;;;;;;;2.60;2.47;;;;;;;2.70;100.00;101660.50;5108738;28;20449;-46
2023/02/15 08:43:54;;;;;;;1.27;1.17;;;;;;;2.88;100.00;101653.09;5108119;28;20543;-47
2023/02/15 08:46:22;;;;;;;4.83;2.33;;;;;;;2.84;100.00;101645.97;5104269;28;20483;-46
2023/02/15 08:48:48;;;;;;;2.80;2.00;;;;;;;2.88;100.00;101658.34;5098821;28;20871;-46
2023/02/15 08:51:21;;;;;;;2.80;1.87;;;;;;;3.02;100.00;101646.44;5098936;28;20440;-46
2023/02/15 08:53:51;;;;;;;4.40;2.10;;;;;;;2.88;100.00;101647.84;5108871;28;20475;-47
2023/02/15 08:56:20;;;;;;;2.97;2.87;;;;;;;2.64;100.00;101643.75;5106070;28;20471;-46
2023/02/15 08:58:47;;;;;;;2.23;1.17;;;;;;;2.95;100.00;101645.41;5101228;28;21001;-47
2023/02/15 09:01:17;;;;;;;5.43;2.30;;;;;;;2.61;100.00;101640.16;5103383;28;20548;-47
2023/02/15 09:03:45;;;;;;;2.00;1.10;;;;;;;2.57;100.00;101639.19;5108218;28;20953;-46
2023/02/15 09:06:12;;;;;;;3.20;3.10;;;;;;;2.58;100.00;101640.97;5107231;28;20484;-48
2023/02/15 09:08:39;;;;;;;1.60;1.50;;;;;;;2.72;100.00;101637.78;5101443;28;20448;-47
2023/02/15 09:11:06;;;;;;;1.77;1.67;;;;;;;2.58;100.00;101643.59;5102385;28;20484;-47
2023/02/15 09:13:33;;;;;;;2.07;1.97;;;;;;;2.23;100.00;101645.28;5108061;28;20468;-47
2023/02/15 09:16:02;;;;;;;4.23;2.17;;;;;;;2.47;100.00;101652.94;5107666;28;20444;-46
2023/02/15 09:18:31;;;;;;;1.93;1.83;;;;;;;2.48;100.00;101646.84;5101110;28;20828;-46
2023/02/15 09:21:07;;;;;;;2.23;2.03;;;;;;;2.57;100.00;101643.53;5103052;28;20444;-47
2023/02/15 09:23:34;;;;;;;1.57;1.47;;;;;;;2.45;100.00;101645.84;5103449;28;20550;-47
2023/02/15 09:26:03;;;;;;;5.13;1.97;;;;;;;2.19;100.00;101650.41;5100797;28;20485;-46
2023/02/15 09:28:32;;;;;;;1.20;1.10;;;;;;;2.26;100.00;101657.59;5108226;28;20455;-46
2023/02/15 09:31:16;;;;;;;2.07;1.27;;;;;;;2.38;100.00;101650.06;5100912;28;20486;-46
2023/02/15 09:33:44;;;;;;;1.70;1.50;;;;;;;2.34;100.00;101649.09;5102477;28;20900;-52
2023/02/15 09:36:14;;;;;;;3.70;3.40;;;;;;;2.51;100.00;101646.03;5107573;28;20445;-50
2023/02/15 09:38:41;;;;;;;2.87;2.67;;;;;;;2.63;100.00;101648.97;5107573;28;20444;-51
2023/02/15 09:41:33;;;;;;;1.60;1.50;;;;;;;2.66;100.00;101652.56;5101480;28;20914;-52
2023/02/15 09:44:16;;;;;;;6.33;2.30;;;;;;;2.90;100.00;101651.41;5100397;28;20471;-52
2023/02/15 09:47:20;;;;;;;3.90;2.70;;;;;;;2.98;100.00;101640.22;5101304;28;20511;-51
2023/02/15 09:49:56;;;;;;;2.70;2.50;;;;;;;2.97;100.00;101643.69;5096732;28;20957;-52
2023/02/15 09:52:42;;;;;;;3.80;3.50;;;;;;;3.03;100.00;101640.34;5104065;28;20498;-52
2023/02/15 09:55:17;;;;;;;6.03;1.73;;;;;;;3.05;100.00;101645.63;5106323;28;20464;-50
2023/02/15 09:58:07;;;;;;;3.90;3.63;;;;;;;3.06;100.00;101648.28;5103756;28;20451;-51
2023/02/15 10:00:44;;;;;;;1.90;1.70;;;;;;;3.39;100.00;101642.03;5100200;28;20967;-52
2023/02/15 10:03:34;;;;;;;4.10;2.53;;;;;;;3.20;100.00;101660.00;5100352;28;20445;-51
2023/02/15 10:06:41;;;;;;;5.00;4.50;;;;;;;3.25;100.00;101660.09;5084780;28;20567;-52
2023/02/15 10:09:17;;;;;;;2.20;1.23;;;;;;;3.24;100.00;101669.72;5103150;28;20546;-52
2023/02/15 10:11:58;;;;;;;3.17;3.07;;;;;;;3.14;100.00;101672.97;5099839;28;21000;-52
2023/02/15 10:14:42;;;;;;;1.70;1.20;;;;;;;3.03;100.00;101663.97;5081757;28;20465;-51
2023/02/15 10:17:30;;;;;;;7.33;2.20;;;;;;;3.21;100.00;101672.28;5104325;28;20512;-52
2023/02/15 10:20:27;;;;;;;9.03;3.33;;;;;;;3.36;100.00;101669.13;5106777;28;20448;-52
2023/02/15 10:23:15;;;;;;;5.53;4.27;;;;;;;3.38;100.00;101666.53;5099018;28;20814;-52
2023/02/15 10:25:50;;;;;;;2.80;1.90;;;;;;;3.49;100.00;101660.66;5100671;28;20538;-52
2023/02/15 10:28:20;;;;;;;1.10;1.10;;;;;;;3.41;100.00;101648.19;5094971;28;20459;-50
2023/02/15 10:30:54;;;;;;;5.00;3.00;;;;;;;3.38;100.00;101654.28;5099690;28;20452;-51
2023/02/15 10:33:26;;;;;;;8.30;3.80;;;;;;;3.52;100.00;101649.31;5104181;28;20566;-50
2023/02/15 10:36:11;;;;;;;2.43;2.27;;;;;;;3.53;100.00;101644.09;5106723;28;20532;-52
2023/02/15 10:38:51;;;;;;;4.60;1.37;;;;;;;3.30;100.00;101640.09;5105636;28;20440;-50
2023/02/15 10:41:46;;;;;;;3.63;3.20;;;;;;;2.99;100.00;101641.09;5105828;28;20448;-52
2023/02/15 10:44:41;;;;;;;8.33;1.83;;;;;;;3.20;100.00;101641.63;5106505;28;20552;-52
2023/02/15 10:47:29;;;;;;;1.83;1.73;;;;;;;3.44;100.00;101643.03;5106034;28;20583;-52
2023/02/15 10:50:14;;;;;;;4.73;3.00;;;;;;;3.65;100.00;101642.59;5104878;28;20945;-52
2023/02/15 10:53:18;;;;;;;5.20;4.90;;;;;;;3.16;100.00;101641.53;5100844;28;20843;-52
2023/02/15 10:55:51;;;;;;;3.50;2.00;;;;;;;3.34;100.00;101627.91;5106429;28;20437;-52
2023/02/15 10:58:56;;;;;;;3.53;2.43;;;;;;;3.51;100.00;101622.16;5106608;28;20860;-52
2023/02/15 11:02:00;;;;;;;5.17;3.00;;;;;;;3.61;100.00;101618.00;5104947;28;20435;-52
2023/02/15 11:04:36;;;;;;;3.23;3.03;;;;;;;3.55;100.00;101621.34;5041883;28;20485;-52
2023/02/15 11:07:24;;;;;;;4.00;2.93;;;;;;;3.74;100.00;101621.75;5104656;28;20488;-52
2023/02/15 11:10:11;;;;;;;3.60;2.43;;;;;;;3.57;100.00;101629.31;5106004;28;20824;-53
2023/02/15 11:12:40;;;;;;;3.13;3.03;;;;;;;3.61;100.00;101628.50;5103777;28;20444;-51
2023/02/15 11:15:28;;;;;;;1.70;1.60;;;;;;;3.73;100.00;101614.72;5099060;28;20463;-51
2023/02/15 11:18:02;;;;;;;4.20;3.80;;;;;;;3.77;100.00;101609.56;5099059;28;20532;-52
2023/02/15 11:20:38;;;;;;;4.00;2.90;;;;;;;3.67;100.00;101617.22;5102445;28;20516;-51
2023/02/15 11:23:15;;;;;;;5.10;1.67;;;;;;;3.75;100.00;101611.28;5103850;28;20440;-52
2023/02/15 11:25:46;;;;;;;2.83;2.63;;;;;;;3.71;100.00;101611.19;5105587;28;20455;-53
2023/02/15 11:28:23;;;;;;;4.87;3.07;;;;;;;3.52;100.00;101610.78;5106109;28;20940;-52
2023/02/15 11:30:55;;;;;;;3.73;2.80;;;;;;;3.36;100.00;101600.81;5098760;28;20462;-52
2023/02/15 11:33:30;;;;;;;2.30;2.10;;;;;;;3.38;100.00;101600.84;5102071;28;20529;-52
2023/02/15 11:36:13;;;;;;;3.23;2.90;;;;;;;3.49;100.00;101599.31;5105749;28;20447;-52
2023/02/15 11:38:43;;;;;;;1.30;1.20;;;;;;;3.32;100.00;101593.72;5105578;28;20451;-52
2023/02/15 11:41:24;;;;;;;1.80;1.50;;;;;;;3.42;100.00;101595.66;5085519;28;20455;-52
2023/02/15 11:44:29;;;;;;;2.20;1.77;;;;;;;3.35;100.00;101587.63;5098478;28;20518;-52
2023/02/15 11:46:56;;;;;;;4.53;1.93;;;;;;;3.27;100.00;101575.19;5098598;28;20491;-53
2023/02/15 11:49:28;;;;;;;2.77;2.57;;;;;;;3.46;100.00;101573.88;5104866;28;20444;-53
2023/02/15 11:51:56;;;;;;;2.63;2.40;;;;;;;3.80;100.00;101574.53;5096877;28;20452;-53
2023/02/15 11:54:30;;;;;;;9.43;3.47;;;;;;;3.91;100.00;101569.50;5103949;28;21058;-52
2023/02/15 11:57:01;;;;;;;5.70;2.30;;;;;;;3.75;100.00;101556.06;5105671;28;20940;-52
2023/02/15 11:59:34;;;;;;;1.77;1.67;;;;;;;3.73;100.00;101576.19;5102401;28;20483;-52
2023/02/15 12:02:01;;;;;;;10.20;4.57;;;;;;;4.02;100.00;101562.69;5098797;28;20535;-53
2023/02/15 12:04:44;;;;;;;9.43;3.83;;;;;;;4.11;100.00;101560.22;5100367;28;20507;-52
2023/02/15 12:07:22;;;;;;;3.97;3.10;;;;;;;3.88;100.00;101557.19;5099366;28;20534;-53
2023/02/15 12:10:13;;;;;;;4.53;1.97;;;;;;;3.62;100.00;101555.78;5098794;28;20468;-52
2023/02/15 12:12:40;;;;;;;1.77;1.67;;;;;;;3.58;100.00;101552.22;5099999;28;20833;-53
2023/02/15 12:15:09;;;;;;;5.90;4.03;;;;;;;3.65;100.00;101547.94;5105596;28;20469;-53